Time;durP1;ratioP1;P1;durP2;ratioP2;P2;SDS_P1;SDS_P2;PMS_P1;PMS_P2;Temp;Humidity;BMP_temperature;BMP_pressure;BME280_temperature;BME280_humidity;BME280_pressure;Samples;Min_cycle;Max_cycle;Signal;HPM_P1;HPM_P2
2022/09/30 00:01:48;;;;;;;2.90;2.60;;;12.30;99.90;;;;;;7390619;19;20138;-82
2022/09/30 00:04:16;;;;;;;6.97;3.03;;;12.20;99.90;;;;;;7392142;19;20138;-81
2022/09/30 00:06:42;;;;;;;4.43;3.20;;;12.30;99.90;;;;;;7389720;19;20515;-81
2022/09/30 00:09:10;;;;;;;5.93;3.80;;;12.30;99.90;;;;;;7389090;19;20190;-81
2022/09/30 00:11:38;;;;;;;4.90;3.50;;;12.30;99.90;;;;;;7387591;19;20138;-81
2022/09/30 00:14:04;;;;;;;4.50;2.90;;;12.30;99.90;;;;;;7387613;19;20249;-82
2022/09/30 00:16:33;;;;;;;4.17;2.60;;;12.30;99.90;;;;;;7387438;19;20166;-82
2022/09/30 00:18:59;;;;;;;4.60;2.60;;;12.20;99.90;;;;;;7389078;19;20161;-82
2022/09/30 00:21:27;;;;;;;4.83;2.50;;;12.20;99.90;;;;;;7390206;19;20159;-82
2022/09/30 00:23:53;;;;;;;3.23;2.50;;;12.20;99.90;;;;;;7387295;19;20142;-82
2022/09/30 00:26:21;;;;;;;6.20;2.70;;;12.20;99.90;;;;;;7386152;19;20177;-81
2022/09/30 00:28:51;;;;;;;4.17;2.60;;;12.30;99.90;;;;;;7387067;19;20139;-82
2022/09/30 00:31:18;;;;;;;4.50;2.60;;;12.40;99.90;;;;;;7390300;19;20588;-82
2022/09/30 00:34:05;;;;;;;4.00;2.47;;;12.30;99.90;;;;;;7387676;19;20628;-80
2022/09/30 00:36:51;;;;;;;3.83;2.63;;;12.30;99.90;;;;;;7387190;19;20153;-82
2022/09/30 00:39:19;;;;;;;4.83;2.80;;;12.30;99.90;;;;;;7387985;19;20138;-81
2022/09/30 00:41:48;;;;;;;3.43;2.50;;;12.30;99.90;;;;;;7387744;19;20485;-82
2022/09/30 00:44:51;;;;;;;4.87;3.17;;;12.10;99.90;;;;;;7388733;19;20177;-81
2022/09/30 00:47:44;;;;;;;6.83;3.40;;;12.20;99.90;;;;;;7389566;19;20150;-82
2022/09/30 00:50:41;;;;;;;5.83;3.23;;;12.20;99.90;;;;;;7388862;19;20189;-81
2022/09/30 00:53:17;;;;;;;4.77;2.67;;;12.30;99.90;;;;;;7386754;19;20183;-81
2022/09/30 00:56:03;;;;;;;5.07;3.03;;;12.30;99.90;;;;;;7389961;19;20162;-80
2022/09/30 00:58:35;;;;;;;5.30;2.83;;;12.30;99.90;;;;;;7390277;19;20596;-80
2022/09/30 01:01:02;;;;;;;3.53;2.40;;;12.30;99.90;;;;;;7388118;19;20135;-81
2022/09/30 01:03:39;;;;;;;2.50;2.00;;;12.30;99.90;;;;;;7394265;19;20147;-81
2022/09/30 01:06:05;;;;;;;6.93;2.67;;;12.30;99.90;;;;;;7397002;19;20146;-82
2022/09/30 01:08:35;;;;;;;6.07;2.80;;;12.40;99.90;;;;;;7394300;19;20525;-81
2022/09/30 01:11:01;;;;;;;5.37;2.67;;;12.30;99.90;;;;;;7394842;19;20545;-82
2022/09/30 01:13:28;;;;;;;3.93;2.60;;;12.20;99.90;;;;;;7395194;19;20189;-82
2022/09/30 01:16:06;;;;;;;3.23;2.63;;;12.20;99.90;;;;;;7392448;19;20182;-81
2022/09/30 01:18:44;;;;;;;5.30;2.90;;;12.20;99.90;;;;;;7394820;19;20615;-80
2022/09/30 01:21:16;;;;;;;3.53;2.87;;;12.20;99.90;;;;;;7395700;19;20134;-82
2022/09/30 01:23:50;;;;;;;5.07;2.90;;;12.20;99.90;;;;;;7395717;19;20131;-81
2022/09/30 01:26:42;;;;;;;4.27;2.63;;;12.30;99.90;;;;;;7393113;19;20149;-82
2022/09/30 01:29:45;;;;;;;5.37;2.80;;;12.30;99.90;;;;;;7392953;19;20146;-82
2022/09/30 01:32:40;;;;;;;4.00;2.57;;;12.30;99.90;;;;;;7393805;19;20246;-81
2022/09/30 01:35:29;;;;;;;3.70;2.73;;;12.20;99.90;;;;;;7392313;19;20138;-82
2022/09/30 01:38:28;;;;;;;4.30;2.70;;;12.20;99.90;;;;;;7394834;19;20139;-82
2022/09/30 01:41:17;;;;;;;5.17;3.03;;;12.30;99.90;;;;;;7394139;19;20151;-82
2022/09/30 01:43:53;;;;;;;6.33;2.97;;;12.30;99.90;;;;;;7393589;19;20301;-82
2022/09/30 01:46:32;;;;;;;5.30;3.03;;;12.30;99.90;;;;;;7394877;19;20141;-82
2022/09/30 01:49:24;;;;;;;6.73;3.43;;;12.20;99.90;;;;;;7393896;19;20150;-83
2022/09/30 01:52:13;;;;;;;4.77;3.57;;;12.10;99.90;;;;;;7393740;19;20174;-82
2022/09/30 01:55:05;;;;;;;4.63;3.50;;;12.20;99.90;;;;;;7392613;19;20689;-80
2022/09/30 01:57:49;;;;;;;5.27;3.23;;;12.20;99.90;;;;;;7393611;19;20183;-82
2022/09/30 02:00:15;;;;;;;6.43;2.80;;;11.90;99.90;;;;;;7394285;19;20130;-83
2022/09/30 02:03:04;;;;;;;5.20;3.30;;;11.80;99.90;;;;;;7393629;19;20135;-82
2022/09/30 02:05:45;;;;;;;5.57;3.57;;;11.60;99.90;;;;;;7393949;19;20154;-83
2022/09/30 02:08:18;;;;;;;5.93;3.20;;;11.70;99.90;;;;;;7393112;19;20138;-82
2022/09/30 02:10:50;;;;;;;6.03;3.83;;;11.90;99.90;;;;;;7393169;19;20741;-80
2022/09/30 02:13:22;;;;;;;6.40;3.20;;;12.10;99.90;;;;;;7394299;19;20176;-83
2022/09/30 02:15:54;;;;;;;6.73;3.93;;;12.20;99.90;;;;;;7393906;19;20177;-82
2022/09/30 02:18:31;;;;;;;4.03;3.20;;;12.20;99.90;;;;;;7395415;19;20157;-82
2022/09/30 02:21:00;;;;;;;8.17;3.60;;;12.20;99.90;;;;;;7393305;19;20170;-81
2022/09/30 02:23:30;;;;;;;8.97;4.07;;;12.30;99.90;;;;;;7392328;19;20604;-82
2022/09/30 02:26:05;;;;;;;7.03;3.67;;;12.20;99.90;;;;;;7395186;19;20150;-82
2022/09/30 02:28:33;;;;;;;9.13;3.77;;;12.10;99.90;;;;;;7393571;19;20148;-82
2022/09/30 02:31:02;;;;;;;8.63;4.20;;;12.10;99.90;;;;;;7397455;19;20143;-82
2022/09/30 02:33:34;;;;;;;7.67;3.97;;;12.10;99.90;;;;;;7395427;19;20135;-81
2022/09/30 02:36:18;;;;;;;8.70;4.47;;;12.00;99.90;;;;;;7395058;19;20161;-82
2022/09/30 02:38:49;;;;;;;8.07;4.60;;;12.00;99.90;;;;;;7392325;19;20142;-81
2022/09/30 02:41:20;;;;;;;6.13;4.23;;;12.00;99.90;;;;;;7394526;19;20197;-79
2022/09/30 02:43:49;;;;;;;5.53;4.10;;;11.60;99.90;;;;;;7395621;19;20161;-82
2022/09/30 02:46:20;;;;;;;6.33;4.20;;;11.40;99.90;;;;;;7392517;19;20146;-78
2022/09/30 02:49:01;;;;;;;6.90;4.60;;;11.60;99.90;;;;;;7391020;19;20620;-78
2022/09/30 02:51:42;;;;;;;9.20;4.40;;;11.90;99.90;;;;;;7391710;19;20603;-78
2022/09/30 02:54:24;;;;;;;6.13;4.50;;;11.90;99.90;;;;;;7388932;19;20161;-77
2022/09/30 02:57:18;;;;;;;9.10;4.90;;;12.00;99.90;;;;;;7391721;19;20155;-77
2022/09/30 02:59:51;;;;;;;7.27;4.27;;;11.90;99.90;;;;;;7392828;19;20509;-77
2022/09/30 03:02:18;;;;;;;7.93;4.30;;;11.70;99.90;;;;;;7391740;19;20151;-77
2022/09/30 03:04:46;;;;;;;6.37;4.00;;;11.80;99.90;;;;;;7389978;19;20134;-77
2022/09/30 03:07:13;;;;;;;6.43;4.30;;;11.90;99.90;;;;;;7391507;19;20151;-77
2022/09/30 03:09:39;;;;;;;9.03;4.30;;;12.00;99.90;;;;;;7388199;19;20134;-77
2022/09/30 03:12:46;;;;;;;5.60;3.80;;;12.00;99.90;;;;;;7393134;19;20183;-77
2022/09/30 03:16:00;;;;;;;5.83;3.93;;;12.00;99.90;;;;;;7389116;19;20629;-77
2022/09/30 03:18:49;;;;;;;10.57;4.50;;;12.00;99.90;;;;;;7393280;19;20173;-77
2022/09/30 03:21:31;;;;;;;7.53;4.30;;;12.00;99.90;;;;;;7389726;19;20976;-77
2022/09/30 03:23:59;;;;;;;7.37;4.07;;;11.90;99.90;;;;;;7391571;19;20159;-78
2022/09/30 03:26:35;;;;;;;8.70;4.10;;;11.80;99.90;;;;;;7393672;19;20135;-77
2022/09/30 03:29:11;;;;;;;8.33;4.13;;;11.80;99.90;;;;;;7390075;19;20138;-77
2022/09/30 03:31:46;;;;;;;6.80;4.33;;;11.80;99.90;;;;;;7391855;19;20154;-77
2022/09/30 03:34:20;;;;;;;7.20;4.20;;;11.80;99.90;;;;;;7392004;19;20145;-77
2022/09/30 03:36:46;;;;;;;6.10;3.80;;;11.70;99.90;;;;;;7390668;19;20604;-77
2022/09/30 03:39:27;;;;;;;7.70;4.00;;;11.70;99.90;;;;;;7392342;19;20158;-76
2022/09/30 03:42:04;;;;;;;6.33;3.97;;;11.60;99.90;;;;;;7390123;19;20173;-76
2022/09/30 03:44:44;;;;;;;5.53;3.43;;;11.40;99.90;;;;;;7393398;19;20138;-77
2022/09/30 03:47:13;;;;;;;4.67;3.07;;;11.50;99.90;;;;;;7390272;19;20138;-77
2022/09/30 03:49:44;;;;;;;6.43;4.07;;;11.40;99.90;;;;;;7390109;19;20230;-78
2022/09/30 03:52:12;;;;;;;6.10;4.17;;;11.50;99.90;;;;;;7392051;19;20163;-77
2022/09/30 03:54:51;;;;;;;5.80;4.00;;;11.40;99.90;;;;;;7391413;19;20545;-77
2022/09/30 03:57:17;;;;;;;7.10;4.20;;;11.40;99.90;;;;;;7389847;19;20134;-77
2022/09/30 03:59:43;;;;;;;7.00;4.03;;;11.50;99.90;;;;;;7391762;19;20761;-78
2022/09/30 04:02:12;;;;;;;5.23;3.77;;;11.70;99.90;;;;;;7391182;19;20576;-78
2022/09/30 04:04:40;;;;;;;7.73;4.73;;;11.60;99.90;;;;;;7391184;19;20139;-77
2022/09/30 04:07:09;;;;;;;6.60;4.27;;;11.30;99.90;;;;;;7391225;19;20151;-77
2022/09/30 04:09:35;;;;;;;6.97;4.80;;;11.50;99.90;;;;;;7389619;19;20811;-77
2022/09/30 04:12:02;;;;;;;7.63;4.50;;;11.70;99.90;;;;;;7390663;19;20146;-77
2022/09/30 04:14:28;;;;;;;7.70;4.67;;;11.60;99.90;;;;;;7391383;19;20131;-78
2022/09/30 04:16:53;;;;;;;6.97;4.90;;;11.60;99.90;;;;;;7388745;19;20150;-78
2022/09/30 04:19:19;;;;;;;6.10;4.57;;;11.60;99.90;;;;;;7389936;19;20153;-77
2022/09/30 04:21:46;;;;;;;8.90;4.57;;;11.40;99.90;;;;;;7389883;19;20142;-78
2022/09/30 04:24:12;;;;;;;9.23;4.57;;;11.50;99.90;;;;;;7389987;19;20218;-77
2022/09/30 04:26:37;;;;;;;7.47;4.60;;;11.30;99.90;;;;;;7389006;19;20138;-78
2022/09/30 04:29:03;;;;;;;7.90;4.80;;;11.00;99.90;;;;;;7391516;19;20139;-77
2022/09/30 04:31:29;;;;;;;8.10;5.13;;;11.30;99.90;;;;;;7390319;19;20940;-77
2022/09/30 04:33:58;;;;;;;8.67;4.77;;;11.10;99.90;;;;;;7388735;19;20592;-78
2022/09/30 04:36:24;;;;;;;7.03;5.00;;;11.00;99.90;;;;;;7389360;19;20544;-78
2022/09/30 04:38:51;;;;;;;6.60;4.70;;;11.10;99.90;;;;;;7394677;19;20163;-78
2022/09/30 04:41:17;;;;;;;7.77;5.00;;;11.10;99.90;;;;;;7397748;19;20163;-77
2022/09/30 04:43:45;;;;;;;7.80;4.80;;;11.10;99.90;;;;;;7398557;19;20135;-77
2022/09/30 04:46:21;;;;;;;10.30;4.93;;;11.30;99.90;;;;;;7398098;19;20135;-77
2022/09/30 04:48:48;;;;;;;8.30;4.83;;;11.50;99.90;;;;;;7395892;19;20138;-76
2022/09/30 04:51:16;;;;;;;9.07;4.60;;;11.10;99.90;;;;;;7395531;19;20135;-77
2022/09/30 04:53:43;;;;;;;7.83;4.90;;;11.00;99.90;;;;;;7396968;19;20150;-77
2022/09/30 04:56:09;;;;;;;8.90;5.47;;;11.00;99.90;;;;;;7396964;19;20170;-76
2022/09/30 04:58:36;;;;;;;6.13;4.90;;;11.10;99.90;;;;;;7397189;19;20143;-77
2022/09/30 05:01:04;;;;;;;7.60;5.20;;;11.30;99.90;;;;;;7396377;19;20237;-76
2022/09/30 05:03:30;;;;;;;7.40;5.27;;;11.40;99.90;;;;;;7395684;19;20131;-76
2022/09/30 05:05:56;;;;;;;6.57;4.87;;;11.40;99.90;;;;;;7395865;19;20131;-75
2022/09/30 05:08:22;;;;;;;9.83;5.47;;;11.50;99.90;;;;;;7395892;19;20442;-76
2022/09/30 05:10:59;;;;;;;7.63;5.43;;;11.30;99.90;;;;;;7395830;19;20144;-77
2022/09/30 05:13:28;;;;;;;11.43;5.70;;;11.20;99.90;;;;;;7395232;19;20146;-78
2022/09/30 05:15:54;;;;;;;8.80;5.33;;;11.20;99.90;;;;;;7394890;19;20154;-76
2022/09/30 05:18:21;;;;;;;9.00;5.13;;;11.50;99.90;;;;;;7394369;19;20211;-78
2022/09/30 05:20:51;;;;;;;12.33;5.30;;;11.10;99.90;;;;;;7393368;19;20782;-77
2022/09/30 05:23:18;;;;;;;8.87;5.17;;;11.00;99.90;;;;;;7391504;19;20146;-78
2022/09/30 05:25:45;;;;;;;8.67;4.73;;;11.00;99.90;;;;;;7390238;19;20178;-76
2022/09/30 05:28:11;;;;;;;6.97;4.93;;;10.90;99.90;;;;;;7391488;19;20668;-77
2022/09/30 05:30:37;;;;;;;12.37;5.13;;;10.90;99.90;;;;;;7394653;19;20165;-77
2022/09/30 05:33:03;;;;;;;10.30;5.03;;;10.70;99.90;;;;;;7393726;19;20167;-77
2022/09/30 05:35:29;;;;;;;10.43;5.30;;;10.80;99.90;;;;;;7395877;19;20613;-77
2022/09/30 05:37:54;;;;;;;7.80;4.57;;;11.00;99.90;;;;;;7395137;19;20154;-78
2022/09/30 05:40:20;;;;;;;9.80;4.73;;;11.00;99.90;;;;;;7396266;19;20168;-77
2022/09/30 05:42:46;;;;;;;9.77;4.60;;;11.00;99.90;;;;;;7397282;19;20149;-77
2022/09/30 05:45:12;;;;;;;9.73;4.97;;;11.10;99.90;;;;;;7395793;19;20118;-81
2022/09/30 05:47:38;;;;;;;6.93;4.70;;;11.30;99.90;;;;;;7397889;19;20135;-80
2022/09/30 05:50:04;;;;;;;8.00;5.03;;;11.10;99.90;;;;;;7399699;19;20138;-80
2022/09/30 05:52:30;;;;;;;7.67;4.93;;;11.00;99.90;;;;;;7399103;19;20138;-80
2022/09/30 05:55:00;;;;;;;10.40;5.23;;;11.20;99.90;;;;;;7397983;19;20131;-80
2022/09/30 05:57:27;;;;;;;12.50;5.43;;;11.30;99.90;;;;;;7395001;19;20148;-80
2022/09/30 05:59:54;;;;;;;8.27;5.70;;;11.30;99.90;;;;;;7397833;19;20147;-80
2022/09/30 06:02:20;;;;;;;10.73;6.10;;;11.70;99.90;;;;;;7398477;19;20155;-80
2022/09/30 06:04:46;;;;;;;11.67;6.40;;;11.60;99.90;;;;;;7396498;19;20150;-81
2022/09/30 06:07:12;;;;;;;12.37;6.57;;;11.30;99.90;;;;;;7400656;19;20532;-79
2022/09/30 06:09:38;;;;;;;12.77;5.90;;;11.30;99.90;;;;;;7396832;19;20131;-79
2022/09/30 06:12:05;;;;;;;10.70;6.20;;;11.40;99.90;;;;;;7399693;19;20131;-79
2022/09/30 06:14:31;;;;;;;9.83;6.47;;;11.20;99.90;;;;;;7400486;19;20134;-79
2022/09/30 06:16:59;;;;;;;10.90;6.10;;;11.20;99.90;;;;;;7395881;19;20147;-80
2022/09/30 06:19:29;;;;;;;10.90;6.53;;;11.20;99.90;;;;;;7397979;19;20127;-79
2022/09/30 06:21:57;;;;;;;10.17;6.73;;;11.20;99.90;;;;;;7397819;19;20135;-79
2022/09/30 06:24:22;;;;;;;11.53;7.03;;;11.10;99.90;;;;;;7399030;19;20826;-80
2022/09/30 06:26:49;;;;;;;11.93;6.47;;;11.10;99.90;;;;;;7397931;19;20139;-79
2022/09/30 06:29:15;;;;;;;9.93;6.40;;;11.20;99.90;;;;;;7396833;19;20131;-80
2022/09/30 06:31:41;;;;;;;10.27;7.07;;;11.20;99.90;;;;;;7397308;19;20154;-80
2022/09/30 06:34:07;;;;;;;12.50;7.50;;;11.20;99.90;;;;;;7395580;19;20142;-80
2022/09/30 06:36:34;;;;;;;11.70;6.43;;;11.30;99.90;;;;;;7395818;19;20214;-79
2022/09/30 06:39:00;;;;;;;11.77;7.30;;;11.30;99.90;;;;;;7396010;19;20488;-80
2022/09/30 06:41:26;;;;;;;10.87;6.63;;;11.10;99.90;;;;;;7396741;19;20158;-80
2022/09/30 06:43:53;;;;;;;14.10;7.00;;;11.00;99.90;;;;;;7395855;19;20134;-79
2022/09/30 06:46:20;;;;;;;12.33;7.53;;;11.10;99.90;;;;;;7395409;19;20509;-80
2022/09/30 06:48:46;;;;;;;10.38;7.22;;;11.30;99.90;;;;;;7385428;19;20809;-75
2022/09/30 06:51:12;;;;;;;11.50;6.80;;;11.30;99.90;;;;;;7393088;19;20141;-76
2022/09/30 06:53:39;;;;;;;10.27;7.07;;;11.30;99.90;;;;;;7389857;19;20221;-77
2022/09/30 06:56:05;;;;;;;12.33;7.40;;;11.30;99.90;;;;;;7391551;19;20559;-76
2022/09/30 06:58:31;;;;;;;11.50;7.70;;;11.50;99.90;;;;;;7391617;19;20162;-76
2022/09/30 07:01:00;;;;;;;10.03;7.30;;;11.50;99.90;;;;;;7390720;19;20131;-75
2022/09/30 07:03:30;;;;;;;10.13;6.83;;;11.20;99.90;;;;;;7396427;19;20207;-77
2022/09/30 07:06:00;;;;;;;10.53;7.30;;;11.30;99.90;;;;;;7399792;19;20149;-82
2022/09/30 07:08:30;;;;;;;10.40;7.43;;;11.40;99.90;;;;;;7396440;19;20170;-76
2022/09/30 07:11:00;;;;;;;11.73;7.97;;;11.60;99.90;;;;;;7395686;19;20160;-76
2022/09/30 07:13:27;;;;;;;10.97;7.60;;;11.60;99.90;;;;;;7396529;19;20130;-76
2022/09/30 07:15:55;;;;;;;11.60;7.93;;;11.60;99.90;;;;;;7392535;19;20550;-75
2022/09/30 07:18:26;;;;;;;12.60;9.15;;;11.60;99.90;;;;;;7391939;19;20394;-77
2022/09/30 07:20:55;;;;;;;10.73;8.40;;;11.70;99.90;;;;;;7396218;19;20150;-81
2022/09/30 07:23:24;;;;;;;14.67;8.50;;;11.70;99.90;;;;;;7394670;19;20138;-79
2022/09/30 07:25:59;;;;;;;11.83;8.20;;;11.80;99.90;;;;;;7393439;19;20492;-79
2022/09/30 07:28:30;;;;;;;10.87;8.67;;;11.80;99.90;;;;;;7399062;19;20383;-78
2022/09/30 07:30:56;;;;;;;12.10;8.27;;;12.10;99.90;;;;;;7394045;19;20419;-81
2022/09/30 07:33:23;;;;;;;12.50;8.97;;;11.80;99.90;;;;;;7396206;19;20789;-78
2022/09/30 07:35:53;;;;;;;12.87;8.87;;;13.00;99.90;;;;;;7394186;19;20882;-79
2022/09/30 07:38:21;;;;;;;12.50;8.63;;;11.90;99.90;;;;;;7397359;19;20135;-76
2022/09/30 07:41:06;;;;;;;14.13;9.20;;;11.90;99.90;;;;;;7395885;19;20146;-79
2022/09/30 07:43:39;;;;;;;13.27;9.37;;;11.90;99.90;;;;;;7394854;19;20511;-77
2022/09/30 07:46:07;;;;;;;13.10;9.73;;;12.00;99.90;;;;;;7394478;19;20153;-78
2022/09/30 07:48:47;;;;;;;16.30;10.03;;;12.00;99.90;;;;;;7394133;19;20127;-82
2022/09/30 07:51:26;;;;;;;10.90;8.67;;;12.00;99.90;;;;;;7391330;19;20151;-77
2022/09/30 07:53:58;;;;;;;12.47;8.40;;;12.00;99.90;;;;;;7395395;19;20596;-80
2022/09/30 07:56:26;;;;;;;11.77;8.40;;;12.10;99.90;;;;;;7393921;19;20142;-78
2022/09/30 07:58:58;;;;;;;10.83;8.20;;;12.20;99.90;;;;;;7395688;19;20146;-80
2022/09/30 08:01:25;;;;;;;10.60;8.03;;;12.20;99.90;;;;;;7396331;19;20173;-82
2022/09/30 08:03:55;;;;;;;11.87;9.10;;;12.10;99.90;;;;;;7400352;19;20164;-81
2022/09/30 08:06:21;;;;;;;14.97;8.83;;;12.20;99.90;;;;;;7393625;19;20835;-81
2022/09/30 08:08:50;;;;;;;14.23;8.03;;;12.30;99.90;;;;;;7391289;19;20595;-79
2022/09/30 08:11:16;;;;;;;12.23;8.47;;;12.30;99.90;;;;;;7392250;19;20138;-78
2022/09/30 08:13:42;;;;;;;12.00;8.50;;;12.40;99.90;;;;;;7389330;19;20594;-77
2022/09/30 08:16:08;;;;;;;11.23;8.93;;;12.40;99.90;;;;;;7387205;19;20179;-77
2022/09/30 08:18:34;;;;;;;10.47;8.30;;;12.40;99.90;;;;;;7388907;19;20771;-76
2022/09/30 08:21:05;;;;;;;13.23;9.20;;;12.40;99.90;;;;;;7387254;19;20139;-76
2022/09/30 08:23:32;;;;;;;11.90;8.70;;;12.40;99.90;;;;;;7387010;19;20169;-77
2022/09/30 08:26:02;;;;;;;14.97;10.00;;;12.50;99.90;;;;;;7383209;19;20659;-77
2022/09/30 08:28:30;;;;;;;11.37;8.97;;;12.60;99.90;;;;;;7386590;19;20153;-75
2022/09/30 08:31:05;;;;;;;11.50;8.33;;;12.60;99.90;;;;;;7384974;19;20134;-76
2022/09/30 08:33:32;;;;;;;12.63;9.00;;;12.70;99.90;;;;;;7389359;19;20138;-74
2022/09/30 08:36:05;;;;;;;13.33;8.60;;;12.60;99.90;;;;;;7387133;19;20146;-74
2022/09/30 08:38:32;;;;;;;13.90;8.93;;;12.70;99.90;;;;;;7388066;19;20134;-74
2022/09/30 08:41:40;;;;;;;13.47;8.77;;;12.70;99.90;;;;;;7388551;19;20619;-75
2022/09/30 08:44:32;;;;;;;9.77;7.50;;;12.70;99.90;;;;;;7389558;19;20258;-74
2022/09/30 08:47:07;;;;;;;12.53;8.97;;;12.70;99.90;;;;;;7387311;19;20142;-75
2022/09/30 08:49:44;;;;;;;13.63;9.07;;;12.70;99.90;;;;;;7388762;19;20183;-74
2022/09/30 08:52:16;;;;;;;12.43;8.43;;;12.70;99.90;;;;;;7388195;19;20156;-74
2022/09/30 08:54:47;;;;;;;13.57;9.27;;;12.70;99.90;;;;;;7389693;19;20138;-74
2022/09/30 08:57:13;;;;;;;15.10;9.13;;;12.70;99.90;;;;;;7385387;19;20138;-74
2022/09/30 08:59:53;;;;;;;11.60;8.63;;;12.60;99.90;;;;;;7388457;19;20149;-75
2022/09/30 09:02:32;;;;;;;16.53;11.40;;;12.70;99.90;;;;;;7391180;19;20134;-74
2022/09/30 09:05:01;;;;;;;18.87;12.83;;;12.70;99.90;;;;;;7390171;19;20964;-73
2022/09/30 09:07:46;;;;;;;12.57;9.70;;;12.70;99.90;;;;;;7389181;19;20138;-74
2022/09/30 09:10:38;;;;;;;16.23;10.67;;;12.80;99.90;;;;;;7389373;19;20147;-73
2022/09/30 09:13:34;;;;;;;14.57;10.00;;;12.80;99.90;;;;;;7389124;19;20143;-73
2022/09/30 09:16:11;;;;;;;14.57;9.27;;;12.70;99.90;;;;;;7383130;19;20190;-77
2022/09/30 09:18:43;;;;;;;13.82;10.13;;;13.00;99.90;;;;;;7372674;19;20985;-76
2022/09/30 09:21:23;;;;;;;14.45;10.32;;;13.20;99.90;;;;;;7379713;19;20408;-75
2022/09/30 09:23:52;;;;;;;12.70;9.67;;;13.20;99.90;;;;;;7381836;19;20138;-75
2022/09/30 09:26:18;;;;;;;14.00;9.37;;;13.20;99.90;;;;;;7386347;19;20947;-75
2022/09/30 09:29:19;;;;;;;12.90;8.90;;;13.30;99.90;;;;;;7385704;19;20138;-76
2022/09/30 09:31:47;;;;;;;11.63;8.07;;;13.40;99.90;;;;;;7386987;19;20154;-77
2022/09/30 09:34:14;;;;;;;10.63;8.50;;;13.50;99.90;;;;;;7393281;19;20154;-76
2022/09/30 09:36:47;;;;;;;13.63;9.27;;;13.60;99.90;;;;;;7393484;19;20145;-78
2022/09/30 09:39:40;;;;;;;13.90;9.70;;;13.60;99.90;;;;;;7395526;19;20135;-77
2022/09/30 09:42:43;;;;;;;11.43;8.37;;;13.60;99.90;;;;;;7399046;19;20150;-76
2022/09/30 09:45:32;;;;;;;14.13;8.93;;;13.70;99.90;;;;;;7397344;19;20666;-78
2022/09/30 09:47:58;;;;;;;13.00;8.67;;;13.40;99.90;;;;;;7394578;19;20841;-77
2022/09/30 09:50:35;;;;;;;12.60;8.10;;;13.60;99.90;;;;;;7394447;19;20623;-76
2022/09/30 09:53:39;;;;;;;10.63;7.93;;;14.00;99.90;;;;;;7396910;19;20201;-76
2022/09/30 09:56:19;;;;;;;10.23;7.07;;;14.10;99.90;;;;;;7399434;19;20587;-78
2022/09/30 09:59:04;;;;;;;12.20;8.98;;;14.20;99.90;;;;;;7394489;19;20134;-77
2022/09/30 10:01:32;;;;;;;14.63;10.43;;;14.30;99.90;;;;;;7393704;19;20142;-79
2022/09/30 10:04:16;;;;;;;12.00;7.47;;;14.30;99.90;;;;;;7394096;19;20143;-78
2022/09/30 10:06:48;;;;;;;10.33;7.70;;;14.30;99.90;;;;;;7396824;19;20142;-79
2022/09/30 10:09:30;;;;;;;10.70;7.33;;;14.20;99.90;;;;;;7394960;19;20899;-78
2022/09/30 10:12:05;;;;;;;10.00;7.67;;;14.20;99.90;;;;;;7393655;19;20139;-77
2022/09/30 10:14:47;;;;;;;9.90;7.38;;;14.20;99.90;;;;;;7392611;19;20156;-77
2022/09/30 10:17:30;;;;;;;9.18;6.68;;;14.20;99.90;;;;;;7391725;19;20166;-77
2022/09/30 10:20:26;;;;;;;10.10;6.60;;;14.30;99.90;;;;;;7393549;19;20145;-80
2022/09/30 10:23:08;;;;;;;9.33;5.43;;;14.40;99.90;;;;;;7391755;19;20904;-79
2022/09/30 10:25:34;;;;;;;8.70;5.50;;;14.40;99.90;;;;;;7391203;19;20270;-86
2022/09/30 10:28:02;;;;;;;6.43;5.03;;;14.50;99.90;;;;;;7392728;19;20161;-81
2022/09/30 10:30:56;;;;;;;7.50;5.03;;;14.50;99.90;;;;;;7390891;19;20154;-74
2022/09/30 10:33:32;;;;;;;7.30;4.65;;;14.60;99.90;;;;;;7392300;19;20158;-75
2022/09/30 10:36:03;;;;;;;7.15;5.20;;;14.70;99.90;;;;;;7392603;19;20142;-77
2022/09/30 10:38:31;;;;;;;13.10;7.43;;;14.70;99.90;;;;;;7391183;19;20157;-77
2022/09/30 10:40:57;;;;;;;7.47;4.53;;;14.90;99.90;;;;;;7394724;19;20146;-77
2022/09/30 10:43:31;;;;;;;8.73;4.47;;;15.10;99.90;;;;;;7394004;19;20141;-77
2022/09/30 10:46:02;;;;;;;6.82;4.43;;;15.00;99.90;;;;;;7393559;19;20745;-77
2022/09/30 10:48:31;;;;;;;8.15;5.00;;;15.10;99.90;;;;;;7394284;19;20230;-79
2022/09/30 10:50:57;;;;;;;5.55;4.93;;;15.20;99.90;;;;;;7394394;19;20467;-77
2022/09/30 10:53:28;;;;;;;5.10;3.38;;;15.30;99.90;;;;;;7390869;19;20154;-77
2022/09/30 10:55:55;;;;;;;5.38;3.08;;;15.30;99.90;;;;;;7394630;19;20152;-78
2022/09/30 10:58:27;;;;;;;5.45;3.85;;;15.40;99.90;;;;;;7391358;19;20163;-77
2022/09/30 11:01:15;;;;;;;5.22;3.28;;;15.60;99.90;;;;;;7392661;19;20203;-76
2022/09/30 11:04:03;;;;;;;4.75;2.70;;;15.60;99.90;;;;;;7392165;19;20146;-76
2022/09/30 11:06:32;;;;;;;3.22;2.65;;;15.60;99.90;;;;;;7391577;19;20150;-76
2022/09/30 11:09:29;;;;;;;4.53;2.20;;;15.60;99.90;;;;;;7393678;19;20592;-78
2022/09/30 11:12:04;;;;;;;3.40;2.10;;;15.70;99.90;;;;;;7390327;19;20183;-77
2022/09/30 11:14:34;;;;;;;4.70;2.83;;;15.80;99.90;;;;;;7390543;19;20146;-77
2022/09/30 11:17:26;;;;;;;5.47;2.33;;;15.80;99.90;;;;;;7388678;19;20170;-77
2022/09/30 11:20:25;;;;;;;4.90;2.35;;;15.90;99.90;;;;;;7391909;19;20168;-78
2022/09/30 11:22:59;;;;;;;3.13;2.42;;;15.90;99.90;;;;;;7385679;19;20138;-77
2022/09/30 11:25:43;;;;;;;4.10;2.90;;;15.90;99.90;;;;;;7382187;19;20623;-77
2022/09/30 11:28:23;;;;;;;5.15;4.00;;;16.10;99.90;;;;;;7383120;19;20495;-76
2022/09/30 11:31:22;;;;;;;3.90;3.05;;;16.30;99.90;;;;;;7388751;19;21050;-76
2022/09/30 11:34:19;;;;;;;3.53;2.75;;;16.40;99.90;;;;;;7386663;19;20143;-75
2022/09/30 11:36:59;;;;;;;4.82;2.40;;;16.30;99.90;;;;;;7387102;19;20147;-77
2022/09/30 11:40:01;;;;;;;3.00;1.98;;;16.20;99.90;;;;;;7383144;19;20153;-77
2022/09/30 11:42:46;;;;;;;4.65;1.90;;;16.10;99.90;;;;;;7389290;19;20141;-77
2022/09/30 11:45:30;;;;;;;2.28;1.80;;;16.30;99.90;;;;;;7390007;19;20144;-76
2022/09/30 11:48:20;;;;;;;2.63;1.77;;;16.40;99.90;;;;;;7388687;19;20158;-76
2022/09/30 11:51:02;;;;;;;3.45;1.88;;;16.50;99.90;;;;;;7390665;19;20141;-76
2022/09/30 11:53:52;;;;;;;2.50;1.77;;;16.70;99.90;;;;;;7385406;19;20210;-77
2022/09/30 11:56:39;;;;;;;3.58;2.22;;;16.30;99.90;;;;;;7389091;19;20147;-76
2022/09/30 11:59:16;;;;;;;3.75;2.20;;;16.50;99.90;;;;;;7393049;19;20139;-75
2022/09/30 12:01:46;;;;;;;2.67;1.90;;;16.70;99.90;;;;;;7389963;19;20202;-76
2022/09/30 12:04:33;;;;;;;3.70;2.25;;;16.60;99.90;;;;;;7391414;19;20138;-76
2022/09/30 12:07:11;;;;;;;4.60;2.10;;;16.70;99.90;;;;;;7388060;19;20613;-76
2022/09/30 12:09:43;;;;;;;3.63;1.70;;;16.60;99.90;;;;;;7385258;19;20829;-77
2022/09/30 12:12:13;;;;;;;2.85;1.98;;;16.70;99.90;;;;;;7385125;19;20167;-77
2022/09/30 12:14:48;;;;;;;3.72;1.90;;;16.80;99.90;;;;;;7387826;19;20154;-76
2022/09/30 12:17:25;;;;;;;2.80;1.85;;;16.90;99.90;;;;;;7388614;19;20178;-76
2022/09/30 12:19:54;;;;;;;3.28;1.60;;;17.10;99.90;;;;;;7390021;19;20146;-78
2022/09/30 12:22:29;;;;;;;3.00;1.65;;;16.90;99.90;;;;;;7387020;19;20386;-77
2022/09/30 12:24:55;;;;;;;2.78;1.70;;;16.80;99.90;;;;;;7386990;19;20681;-77
2022/09/30 12:27:29;;;;;;;3.17;1.63;;;16.70;99.90;;;;;;7390095;19;20159;-77
2022/09/30 12:30:16;;;;;;;2.88;1.83;;;16.80;99.90;;;;;;7387852;19;20170;-78
2022/09/30 12:33:19;;;;;;;2.45;1.60;;;17.00;99.90;;;;;;7390530;19;20213;-76
2022/09/30 12:35:53;;;;;;;3.03;1.50;;;17.00;99.90;;;;;;7386575;19;20145;-76
2022/09/30 12:38:27;;;;;;;2.60;1.50;;;17.00;99.90;;;;;;7388465;19;20133;-77
2022/09/30 12:41:06;;;;;;;2.10;1.33;;;17.10;99.90;;;;;;7387399;19;20223;-76
2022/09/30 12:44:03;;;;;;;2.17;1.30;;;17.10;99.90;;;;;;7387139;19;20250;-77
2022/09/30 12:47:13;;;;;;;1.48;1.15;;;17.40;99.90;;;;;;7389048;19;20512;-78
2022/09/30 12:49:41;;;;;;;2.22;1.40;;;17.40;99.90;;;;;;7385840;19;20889;-78
2022/09/30 12:52:13;;;;;;;3.25;2.17;;;17.60;99.90;;;;;;7389292;19;20143;-77
2022/09/30 12:54:48;;;;;;;3.47;2.10;;;17.70;99.90;;;;;;7390105;19;20218;-78
2022/09/30 12:57:21;;;;;;;4.65;1.17;;;17.80;99.90;;;;;;7388787;19;20194;-77
2022/09/30 12:59:55;;;;;;;4.50;1.40;;;17.70;99.90;;;;;;7392298;19;20465;-78
2022/09/30 13:02:43;;;;;;;2.35;1.27;;;17.60;99.90;;;;;;7395077;19;20150;-78
2022/09/30 13:05:27;;;;;;;1.88;0.98;;;17.70;99.90;;;;;;7397029;19;20139;-79
2022/09/30 13:08:19;;;;;;;1.13;1.00;;;17.60;99.90;;;;;;7394778;19;20149;-76
2022/09/30 13:10:52;;;;;;;2.17;0.98;;;17.40;99.90;;;;;;7394837;19;20226;-77
2022/09/30 13:13:27;;;;;;;1.42;0.90;;;17.40;99.90;;;;;;7397940;19;20483;-78
2022/09/30 13:16:02;;;;;;;2.17;0.80;;;17.10;99.90;;;;;;7394087;19;20201;-77
2022/09/30 13:18:28;;;;;;;1.42;1.00;;;17.10;99.90;;;;;;7396811;19;20217;-78
2022/09/30 13:21:09;;;;;;;1.10;0.90;;;17.10;99.90;;;;;;7395609;19;20613;-78